KBCB/BCB METAR and TAF weather

Enter ICAO airport designator
Station Type Date Time Source
KBCB METAR 2019/02/23 16:55 UTC NOAA

KBCB 231655Z AUTO 06004KT 2SM RA OVC007 03/03 A3031 RMK AO2 P0011 T00260026


Station Type Date Time Source
KBCB Decoded METAR 2019/02/23 16:55 UTC NOAA

Virginia Tech Airport, VA, United States (KBCB) 37-13N 080-25W
Feb 23, 2019 - 11:55 AM EST / 2019.02.23 1655 UTC
Wind: from the ENE (060 degrees) at 5 MPH (4 KT):0
Visibility: 2 mile(s):0
Sky conditions: overcast
Weather: rain
Precipitation last hour: 0.11 inches
Temperature: 36.7 F (2.6 C)
Dew Point: 36.7 F (2.6 C)
Relative Humidity: 100%
Pressure (altimeter): 30.31 in. Hg (1026 hPa)
ob: KBCB 231655Z AUTO 06004KT 2SM RA OVC007 03/03 A3031 RMK AO2 P0011 T00260026
cycle: 17

Station Type Date Time Source
KBCB TAF 2019/02/23 12:40 UTC NOAA

TAF KBCB 231138Z 2312/2412 10005KT 3SM -RA BR OVC005
FM231800 09005KT 2SM -RA BR OVC007
FM240100 VRB03KT 1SM -RADZ BR OVC003


Example: see airport list